Time;durP1;ratioP1;P1;durP2;ratioP2;P2;SDS_P1;SDS_P2;PMS_P1;PMS_P2;Temp;Humidity;BMP_temperature;BMP_pressure;BME280_temperature;BME280_humidity;BME280_pressure;Samples;Min_cycle;Max_cycle;Signal;HPM_P1;HPM_P2
2020/12/08 00:01:19;;;;;;;28.73;16.02;;;-6.10;79.20;;;;;;5072786;28;20021;-83
2020/12/08 00:03:44;;;;;;;26.70;15.80;;;-6.10;79.30;;;;;;5056638;28;20033;-85
2020/12/08 00:06:14;;;;;;;30.83;16.25;;;-6.10;79.30;;;;;;5065769;28;20100;-87
2020/12/08 00:08:40;;;;;;;29.67;16.85;;;-6.10;79.40;;;;;;5078018;28;20017;-86
2020/12/08 00:11:06;;;;;;;31.02;17.58;;;-6.10;79.40;;;;;;5053181;28;20033;-87
2020/12/08 00:13:33;;;;;;;31.48;18.20;;;-6.10;79.40;;;;;;5059720;28;20081;-87
2020/12/08 00:16:03;;;;;;;29.70;16.85;;;-6.10;79.40;;;;;;5056677;28;20025;-87
2020/12/08 00:18:29;;;;;;;36.97;16.23;;;-6.10;79.40;;;;;;5058760;28;20025;-86
2020/12/08 00:20:54;;;;;;;33.28;17.00;;;-6.10;79.50;;;;;;5064276;28;20049;-85
2020/12/08 00:23:20;;;;;;;32.80;19.48;;;-6.10;79.30;;;;;;5058212;28;20084;-86
2020/12/08 00:25:46;;;;;;;39.67;19.13;;;-6.10;79.40;;;;;;5061895;28;20033;-86
2020/12/08 00:28:12;;;;;;;34.67;17.45;;;-6.10;79.40;;;;;;5056017;28;20052;-88
2020/12/08 00:30:38;;;;;;;32.85;19.48;;;-6.20;79.50;;;;;;5056947;28;20025;-89
2020/12/08 00:33:04;;;;;;;40.55;22.25;;;-6.20;79.60;;;;;;5039051;28;20462;-87
2020/12/08 00:35:31;;;;;;;38.25;19.05;;;-6.20;79.70;;;;;;5038407;28;20115;-87
2020/12/08 00:37:57;;;;;;;39.80;18.90;;;-6.30;79.80;;;;;;5057385;28;20479;-88
2020/12/08 00:40:23;;;;;;;35.25;19.13;;;-6.30;79.90;;;;;;5064399;28;20035;-87
2020/12/08 00:42:48;;;;;;;36.53;20.63;;;-6.30;80.00;;;;;;5056695;28;20089;-87
2020/12/08 00:45:14;;;;;;;37.33;21.17;;;-6.20;80.10;;;;;;5057379;28;20560;-88
2020/12/08 00:47:40;;;;;;;42.13;19.33;;;-6.20;79.90;;;;;;5059712;28;20017;-85
2020/12/08 00:50:07;;;;;;;34.40;19.10;;;-6.20;79.90;;;;;;5068691;28;20107;-86
2020/12/08 00:52:33;;;;;;;40.40;21.33;;;-6.30;80.00;;;;;;5067305;28;20021;-85
2020/12/08 00:54:59;;;;;;;36.45;21.02;;;-6.30;80.00;;;;;;5043499;28;20097;-87
2020/12/08 00:57:24;;;;;;;46.72;20.67;;;-6.30;80.10;;;;;;5057524;28;20021;-86
2020/12/08 00:59:51;;;;;;;39.67;22.85;;;-6.30;80.10;;;;;;5056223;28;20453;-89
2020/12/08 01:02:17;;;;;;;47.75;21.65;;;-6.30;80.10;;;;;;5056395;28;20021;-86
2020/12/08 01:04:44;;;;;;;41.90;20.92;;;-6.30;80.10;;;;;;5056157;28;20025;-89
2020/12/08 01:07:12;;;;;;;35.42;19.35;;;-6.30;80.10;;;;;;5056551;28;20535;-87
2020/12/08 01:09:38;;;;;;;38.35;20.85;;;-6.30;80.10;;;;;;5043062;28;20123;-88
2020/12/08 01:12:04;;;;;;;45.42;18.92;;;-6.40;80.10;;;;;;5056831;28;20017;-89
2020/12/08 01:14:31;;;;;;;42.78;20.50;;;-6.40;80.20;;;;;;5059685;28;20055;-86
2020/12/08 01:17:01;;;;;;;;;;;-6.40;80.30;;;;;;5042372;28;20021;-87
2020/12/08 01:19:27;;;;;;;39.40;19.67;;;-6.50;80.10;;;;;;5048308;28;20346;-88
2020/12/08 01:21:54;;;;;;;29.77;18.52;;;-6.50;80.20;;;;;;5062598;28;20094;-88
2020/12/08 01:24:20;;;;;;;41.20;20.45;;;-6.60;80.30;;;;;;5047470;28;20033;-86
2020/12/08 01:26:46;;;;;;;44.47;21.02;;;-6.50;80.50;;;;;;5062596;28;20033;-88
2020/12/08 01:59:32;;;;;;;43.20;24.50;;;-6.70;81.00;;;;;;5072656;28;20488;-88
2020/12/08 02:01:58;;;;;;;51.10;24.70;;;-6.70;81.00;;;;;;5047508;28;20021;-88
2020/12/08 02:04:24;;;;;;;37.78;23.13;;;-6.70;81.20;;;;;;5054869;28;20072;-86
2020/12/08 02:06:49;;;;;;;50.30;26.98;;;-6.70;81.20;;;;;;5042431;28;20025;-87
2020/12/08 02:09:15;;;;;;;45.08;25.73;;;-6.70;81.40;;;;;;5062342;28;20107;-86
2020/12/08 02:11:41;;;;;;;47.55;23.50;;;-6.70;81.40;;;;;;5053192;28;20036;-86
2020/12/08 02:14:07;;;;;;;53.70;26.75;;;-6.70;81.40;;;;;;5066510;28;20009;-89
2020/12/08 02:16:33;;;;;;;57.42;26.52;;;-6.70;81.50;;;;;;5050263;28;20371;-88
2020/12/08 02:18:59;;;;;;;40.10;22.20;;;-6.80;81.40;;;;;;5057600;28;20067;-87
2020/12/08 02:21:30;;;;;;;49.47;24.35;;;-6.80;81.40;;;;;;5056824;28;20048;-88
2020/12/08 02:23:56;;;;;;;51.35;25.17;;;-6.80;81.70;;;;;;5054525;28;20044;-87
2020/12/08 02:26:21;;;;;;;49.97;25.30;;;-6.80;81.60;;;;;;5055919;28;20469;-87
2020/12/08 02:28:47;;;;;;;47.95;24.27;;;-6.80;81.50;;;;;;5069500;28;20017;-86
2020/12/08 02:31:13;;;;;;;48.33;26.20;;;-6.80;81.40;;;;;;5057023;28;20006;-87
2020/12/08 02:33:39;;;;;;;46.70;23.75;;;-6.80;81.60;;;;;;5067946;28;20035;-86
2020/12/08 02:36:05;;;;;;;44.20;24.77;;;-6.90;81.50;;;;;;5056432;28;20086;-85
2020/12/08 02:38:32;;;;;;;50.63;24.15;;;-6.90;81.60;;;;;;5068946;28;20029;-86
2020/12/08 02:40:58;;;;;;;44.80;24.15;;;-7.00;81.70;;;;;;5051648;28;20017;-86
2020/12/08 02:43:24;;;;;;;40.38;23.20;;;-7.00;81.80;;;;;;5036707;28;20429;-87
2020/12/08 02:45:50;;;;;;;43.80;25.55;;;-7.00;81.80;;;;;;5042247;28;20398;-88
2020/12/08 02:48:16;;;;;;;42.28;22.98;;;-6.90;82.00;;;;;;5054130;28;20103;-85
2020/12/08 02:50:44;;;;;;;48.60;25.25;;;-7.00;81.90;;;;;;5055099;28;20041;-87
2020/12/08 02:53:09;;;;;;;;;;;-6.90;82.00;;;;;;5058827;28;20024;-86
2020/12/08 02:55:35;;;;;;;41.15;20.75;;;-7.00;81.80;;;;;;5053605;28;19909;-86
2020/12/08 02:58:01;;;;;;;44.95;21.45;;;-6.90;81.90;;;;;;5054448;28;20021;-85
2020/12/08 03:00:27;;;;;;;47.97;23.75;;;-7.00;81.90;;;;;;5054987;28;20025;-87
2020/12/08 03:02:53;;;;;;;48.08;23.63;;;-7.00;81.90;;;;;;5042434;28;20123;-86
2020/12/08 03:05:19;;;;;;;47.58;23.90;;;-7.00;82.10;;;;;;5053396;28;20109;-87
2020/12/08 03:07:45;;;;;;;50.42;27.08;;;-7.00;82.20;;;;;;5053537;28;20021;-87
2020/12/08 03:10:12;;;;;;;46.35;22.90;;;-7.00;82.20;;;;;;5054202;28;20475;-89
2020/12/08 03:12:38;;;;;;;55.28;23.98;;;-7.00;82.20;;;;;;5055330;28;20032;-87
2020/12/08 03:15:05;;;;;;;41.78;20.77;;;-7.00;82.30;;;;;;5053768;28;20475;-87
2020/12/08 03:17:32;;;;;;;35.10;20.33;;;-6.90;82.30;;;;;;5046158;28;20033;-88
2020/12/08 03:19:58;;;;;;;43.58;23.05;;;-6.90;82.20;;;;;;5044474;28;20021;-86
2020/12/08 03:22:24;;;;;;;45.70;22.33;;;-6.90;82.10;;;;;;5056324;28;20026;-86
2020/12/08 03:24:51;;;;;;;47.95;26.15;;;-6.90;82.10;;;;;;5064625;28;20144;-86
2020/12/08 03:27:18;;;;;;;52.58;23.38;;;-6.90;82.10;;;;;;5072188;28;20055;-86
2020/12/08 03:29:44;;;;;;;51.58;25.15;;;-6.90;82.10;;;;;;5057326;28;20090;-87
2020/12/08 03:32:10;;;;;;;38.70;22.42;;;-6.90;82.20;;;;;;5073340;28;20021;-87
2020/12/08 03:34:37;;;;;;;43.40;23.08;;;-6.90;82.10;;;;;;5068186;28;20025;-88
2020/12/08 03:37:03;;;;;;;53.67;25.67;;;-6.80;82.10;;;;;;5056970;28;20036;-86
2020/12/08 03:39:28;;;;;;;41.72;24.95;;;-6.80;82.10;;;;;;5043783;28;20031;-87
2020/12/08 03:41:59;;;;;;;51.33;28.88;;;-6.80;82.10;;;;;;5043590;28;20475;-87
2020/12/08 03:44:28;;;;;;;50.08;27.27;;;-6.80;82.10;;;;;;5075667;28;20021;-87
2020/12/08 03:46:58;;;;;;;48.15;24.10;;;-6.80;82.10;;;;;;5066033;28;20024;-85
2020/12/08 03:49:26;;;;;;;52.78;29.13;;;-6.80;82.00;;;;;;5047398;28;20040;-88
2020/12/08 03:51:56;;;;;;;55.47;24.10;;;-6.80;82.10;;;;;;5046143;28;20021;-88
2020/12/08 03:54:22;;;;;;;41.42;23.40;;;-6.80;82.10;;;;;;5067809;28;20423;-88
2020/12/08 03:56:48;;;;;;;46.15;23.92;;;-6.80;81.90;;;;;;5059884;28;20017;-87
2020/12/08 03:59:17;;;;;;;49.85;27.48;;;-6.80;81.90;;;;;;5059281;28;20028;-86
2020/12/08 04:01:52;;;;;;;52.88;26.73;;;-6.80;81.90;;;;;;5060686;28;20500;-88
2020/12/08 04:04:19;;;;;;;42.08;23.70;;;-6.80;82.10;;;;;;5057245;28;20029;-85
2020/12/08 04:06:46;;;;;;;43.47;23.17;;;-6.80;82.00;;;;;;5056795;28;20025;-86
2020/12/08 04:09:12;;;;;;;48.80;25.40;;;-6.90;81.80;;;;;;5057041;28;20246;-88
2020/12/08 04:11:38;;;;;;;44.47;23.33;;;-6.90;81.90;;;;;;5056746;28;20025;-87
2020/12/08 04:14:04;;;;;;;47.33;26.33;;;-6.90;82.00;;;;;;5056026;28;20464;-87
2020/12/08 04:16:31;;;;;;;51.80;25.63;;;-7.00;81.90;;;;;;5056553;28;20039;-88
2020/12/08 04:18:58;;;;;;;44.75;26.05;;;-7.00;81.90;;;;;;5055937;28;20627;-86
2020/12/08 04:21:25;;;;;;;45.78;25.45;;;-7.00;82.00;;;;;;5055673;28;20047;-88
2020/12/08 04:23:54;;;;;;;51.80;27.63;;;-7.00;82.10;;;;;;5057884;28;20509;-87
2020/12/08 04:26:20;;;;;;;48.03;25.73;;;-6.90;82.10;;;;;;5058605;28;20032;-85
2020/12/08 04:28:46;;;;;;;49.45;24.80;;;-6.90;82.10;;;;;;5045723;28;20060;-86
2020/12/08 04:31:16;;;;;;;48.78;25.92;;;-6.90;82.00;;;;;;5061907;28;20017;-89
2020/12/08 04:33:42;;;;;;;50.15;25.02;;;-6.90;81.90;;;;;;5052026;28;20021;-87
2020/12/08 04:36:16;;;;;;;49.42;25.63;;;-6.90;81.90;;;;;;5065427;28;20021;-87
2020/12/08 04:38:42;;;;;;;45.80;25.15;;;-6.80;81.80;;;;;;5046467;28;20029;-88
2020/12/08 04:41:25;;;;;;;51.53;24.40;;;-6.80;81.70;;;;;;5057364;28;20414;-88
2020/12/08 04:43:54;;;;;;;49.08;26.67;;;-6.90;81.70;;;;;;5057185;28;20021;-88
2020/12/08 04:46:22;;;;;;;44.63;23.42;;;-6.90;81.60;;;;;;5028398;28;20033;-88
2020/12/08 04:48:49;;;;;;;49.85;24.38;;;-6.90;81.60;;;;;;5055281;28;20044;-89
2020/12/08 04:51:15;;;;;;;41.83;23.23;;;-6.90;81.40;;;;;;5055649;28;20515;-85
2020/12/08 04:53:42;;;;;;;52.75;26.55;;;-6.90;81.40;;;;;;5055708;28;20364;-85
2020/12/08 04:56:08;;;;;;;43.50;21.67;;;-6.90;81.50;;;;;;5052770;28;20021;-84
2020/12/08 04:58:34;;;;;;;44.53;23.35;;;-7.00;81.50;;;;;;5056077;28;20078;-86
2020/12/08 05:01:00;;;;;;;46.25;23.40;;;-7.00;81.50;;;;;;5055976;28;20112;-85
2020/12/08 05:03:27;;;;;;;47.45;23.60;;;-7.00;81.50;;;;;;5059979;28;20017;-85
2020/12/08 05:05:53;;;;;;;;;;;-6.90;81.60;;;;;;5067443;28;20079;-85
2020/12/08 05:08:20;;;;;;;46.65;24.30;;;-6.90;81.40;;;;;;5051181;28;19905;-86
2020/12/08 05:10:48;;;;;;;47.47;23.98;;;-7.00;81.20;;;;;;5061257;28;20099;-85
2020/12/08 05:13:25;;;;;;;44.38;24.25;;;-7.00;81.20;;;;;;5044012;28;20490;-87
2020/12/08 05:16:05;;;;;;;50.85;25.83;;;-7.00;81.40;;;;;;5058050;28;20444;-86
2020/12/08 05:18:33;;;;;;;47.58;24.17;;;-7.00;81.40;;;;;;5045761;28;20093;-88
2020/12/08 05:21:10;;;;;;;41.60;22.52;;;-7.00;81.30;;;;;;5064186;28;20046;-86
2020/12/08 05:23:45;;;;;;;41.45;23.08;;;-7.00;81.40;;;;;;5064034;28;20025;-82
2020/12/08 05:26:13;;;;;;;42.67;22.95;;;-7.00;81.30;;;;;;5073321;28;20044;-86
2020/12/08 05:28:40;;;;;;;46.92;23.60;;;-7.00;81.20;;;;;;5062352;28;20347;-87
2020/12/08 05:31:06;;;;;;;50.08;24.98;;;-7.00;81.20;;;;;;5059986;28;20063;-88
2020/12/08 05:33:33;;;;;;;43.22;25.08;;;-7.00;81.40;;;;;;5060884;28;20017;-86
2020/12/08 05:36:00;;;;;;;50.23;25.30;;;-7.00;81.40;;;;;;5058184;28;20104;-86
2020/12/08 05:38:38;;;;;;;53.03;27.27;;;-7.00;81.50;;;;;;5046954;28;20021;-86
2020/12/08 05:41:08;;;;;;;52.75;26.95;;;-7.00;81.40;;;;;;5051900;28;20047;-89
2020/12/08 05:43:42;;;;;;;55.47;28.42;;;-6.90;81.20;;;;;;5055791;28;20406;-86
2020/12/08 05:46:10;;;;;;;55.67;27.02;;;-6.90;81.20;;;;;;5039165;28;20025;-86
2020/12/08 05:48:36;;;;;;;;;;;-6.90;81.30;;;;;;5057154;28;20075;-87
2020/12/08 05:51:06;;;;;;;50.35;25.60;;;-7.00;81.10;;;;;;5047855;28;19905;-85
2020/12/08 05:53:33;;;;;;;58.60;28.60;;;-7.00;81.00;;;;;;5058260;28;20402;-86
2020/12/08 05:56:07;;;;;;;49.58;24.20;;;-7.00;81.10;;;;;;5049925;28;20032;-87
2020/12/08 05:58:35;;;;;;;46.50;26.27;;;-7.00;81.10;;;;;;5054641;28;20017;-86
2020/12/08 06:01:07;;;;;;;54.22;25.15;;;-7.10;81.00;;;;;;5054170;28;20028;-88
2020/12/08 06:03:38;;;;;;;42.50;26.88;;;-7.00;81.30;;;;;;5041680;28;20025;-87
2020/12/08 06:06:11;;;;;;;55.83;26.92;;;-7.00;81.20;;;;;;5057511;28;20120;-84
2020/12/08 06:08:43;;;;;;;52.40;28.08;;;-7.00;81.90;;;;;;5061081;28;20032;-84
2020/12/08 06:11:09;;;;;;;48.30;27.33;;;-6.90;81.20;;;;;;5049630;28;20032;-88
2020/12/08 06:13:39;;;;;;;46.47;24.10;;;-6.90;81.10;;;;;;5047827;28;20048;-87
2020/12/08 06:16:15;;;;;;;42.72;24.85;;;-6.90;81.00;;;;;;5061616;28;20021;-86
2020/12/08 06:18:42;;;;;;;48.67;24.45;;;-6.90;80.80;;;;;;5031029;28;20167;-88
2020/12/08 06:21:21;;;;;;;52.65;27.45;;;-6.90;80.70;;;;;;5038286;28;20048;-86
2020/12/08 06:23:48;;;;;;;48.20;25.52;;;-6.90;80.70;;;;;;5050153;28;20033;-86
2020/12/08 06:26:20;;;;;;;;;;;-6.80;80.80;;;;;;5053362;28;20020;-85
2020/12/08 06:28:46;;;;;;;49.90;26.30;;;-6.80;80.70;;;;;;5048293;28;20287;-86
2020/12/08 06:31:11;;;;;;;46.85;26.92;;;-6.80;80.50;;;;;;5046631;28;20047;-85
2020/12/08 06:33:54;;;;;;;47.85;26.88;;;-6.80;80.40;;;;;;5057510;28;20044;-87
2020/12/08 06:36:25;;;;;;;41.72;24.45;;;-6.70;80.50;;;;;;5054662;28;20033;-86
2020/12/08 06:39:01;;;;;;;51.55;24.60;;;-6.70;80.40;;;;;;5060236;28;20020;-86
2020/12/08 06:41:32;;;;;;;50.50;24.98;;;-6.70;80.10;;;;;;5052955;28;20489;-89
2020/12/08 06:44:00;;;;;;;50.22;27.75;;;-6.70;80.10;;;;;;5071496;28;20031;-87
2020/12/08 06:46:27;;;;;;;52.63;25.95;;;-6.70;80.10;;;;;;5054929;28;20039;-89
2020/12/08 06:49:05;;;;;;;47.88;24.67;;;-6.60;80.10;;;;;;5058959;28;20120;-90
2020/12/08 06:51:32;;;;;;;43.13;24.35;;;-6.60;80.00;;;;;;5044286;28;20061;-86
2020/12/08 06:54:10;;;;;;;43.30;23.77;;;-6.60;79.80;;;;;;5051635;28;20023;-86
2020/12/08 06:56:36;;;;;;;48.67;26.80;;;-6.60;79.70;;;;;;5045221;28;20095;-89
2020/12/08 06:59:02;;;;;;;59.08;27.98;;;-6.60;79.80;;;;;;5053018;28;20081;-90
2020/12/08 07:01:28;;;;;;;45.42;29.88;;;-6.60;79.60;;;;;;5039998;28;20033;-89
2020/12/08 07:03:55;;;;;;;49.55;26.60;;;-6.60;79.70;;;;;;5039601;28;20021;-92
2020/12/08 07:06:21;;;;;;;46.85;26.77;;;-6.50;79.60;;;;;;5061658;28;20548;-90
2020/12/08 07:08:50;;;;;;;60.42;29.27;;;-6.50;79.40;;;;;;5069637;28;20032;-88
2020/12/08 07:11:21;;;;;;;53.25;28.95;;;-6.50;79.40;;;;;;5041213;28;20041;-91
2020/12/08 07:14:01;;;;;;;54.60;27.67;;;-6.50;79.30;;;;;;5063097;28;20017;-92
2020/12/08 07:16:33;;;;;;;44.38;25.50;;;-6.50;79.10;;;;;;5063617;28;20029;-90
2020/12/08 07:19:02;;;;;;;48.15;27.63;;;-6.50;79.10;;;;;;5076608;28;20024;-93
2020/12/08 07:21:28;;;;;;;53.10;26.48;;;-6.40;79.10;;;;;;5074688;28;20065;-86
2020/12/08 07:23:56;;;;;;;56.25;25.25;;;-6.40;79.20;;;;;;5051092;28;20092;-89
2020/12/08 07:26:31;;;;;;;47.42;26.35;;;-6.30;79.10;;;;;;5059410;28;20036;-91
2020/12/08 07:28:58;;;;;;;55.95;26.85;;;-6.30;78.80;;;;;;5046385;28;20397;-94
2020/12/08 07:31:29;;;;;;;50.55;26.40;;;-6.30;78.70;;;;;;5055172;28;20031;-94
2020/12/08 07:33:55;;;;;;;41.25;25.08;;;-6.20;78.80;;;;;;5047864;28;20033;-93
2020/12/08 07:36:24;;;;;;;46.72;26.98;;;-6.20;78.60;;;;;;5067058;28;20474;-88
2020/12/08 07:38:53;;;;;;;52.67;28.23;;;-6.20;78.40;;;;;;5079298;28;20013;-92
2020/12/08 07:41:28;;;;;;;52.42;27.27;;;-6.20;78.30;;;;;;5050390;28;20033;-94
2020/12/08 07:43:56;;;;;;;44.33;26.92;;;-6.20;78.20;;;;;;5052739;28;20021;-94
2020/12/08 07:46:32;;;;;;;48.28;28.45;;;-6.10;78.30;;;;;;5035052;28;20129;-93
2020/12/08 07:49:07;;;;;;;46.88;23.58;;;-6.10;78.20;;;;;;5018796;28;20120;-93
2020/12/08 07:51:34;;;;;;;49.53;27.23;;;-5.90;78.20;;;;;;5044575;28;20089;-93
2020/12/08 07:54:03;;;;;;;43.97;26.50;;;-5.80;78.00;;;;;;5026002;28;20057;-93
2020/12/08 07:56:36;;;;;;;49.92;26.40;;;-5.70;77.80;;;;;;5025847;28;20132;-93
2020/12/08 07:59:06;;;;;;;49.50;27.42;;;-5.20;78.20;;;;;;5041898;28;20033;-94
2020/12/08 08:01:42;;;;;;;55.53;27.50;;;-4.60;77.40;;;;;;5028485;28;20033;-93
2020/12/08 08:04:09;;;;;;;51.80;26.17;;;-3.80;76.00;;;;;;5045418;28;20042;-92
2020/12/08 08:06:35;;;;;;;59.13;29.50;;;-3.20;74.60;;;;;;5025043;28;20042;-92
2020/12/08 08:09:07;;;;;;;51.72;27.15;;;-2.70;72.70;;;;;;5028173;28;20032;-93
2020/12/08 08:11:34;;;;;;;51.53;29.48;;;-2.20;70.90;;;;;;5037639;28;20014;-92
2020/12/08 08:14:00;;;;;;;;;;;-2.00;68.90;;;;;;5053837;28;20507;-95
2020/12/08 08:16:34;;;;;;;44.85;27.13;;;-1.60;70.30;;;;;;5045881;28;19905;-93
2020/12/08 08:19:00;;;;;;;52.10;29.02;;;-1.30;68.20;;;;;;5035624;28;20129;-92
2020/12/08 08:21:26;;;;;;;44.70;29.83;;;-1.00;66.40;;;;;;5019672;28;20482;-92
2020/12/08 08:23:52;;;;;;;57.88;28.55;;;-0.70;65.20;;;;;;5039549;28;20147;-91
2020/12/08 08:26:18;;;;;;;56.70;30.60;;;-0.30;64.50;;;;;;5047388;28;20048;-91
2020/12/08 08:28:46;;;;;;;51.28;30.42;;;0.00;63.20;;;;;;5021891;28;20022;-91
2020/12/08 08:31:11;;;;;;;50.08;27.05;;;0.10;60.80;;;;;;5021431;28;20071;-91
2020/12/08 08:33:37;;;;;;;60.67;28.27;;;0.30;60.10;;;;;;5040144;28;20127;-91
2020/12/08 08:36:03;;;;;;;48.35;28.10;;;0.40;59.20;;;;;;5038492;28;20010;-88
2020/12/08 08:38:29;;;;;;;53.65;30.20;;;0.40;58.80;;;;;;5043320;28;20026;-89
2020/12/08 08:40:57;;;;;;;51.65;29.63;;;0.10;57.60;;;;;;5036603;28;20056;-87
2020/12/08 08:43:23;;;;;;;;;;;-0.20;57.20;;;;;;5019802;28;20033;-83
2020/12/08 08:45:50;;;;;;;50.30;30.02;;;-0.50;59.40;;;;;;5044269;28;20404;-92
2020/12/08 08:48:19;;;;;;;47.97;27.48;;;-0.60;58.50;;;;;;5047697;28;20033;-93
2020/12/08 08:50:46;;;;;;;53.30;27.60;;;-0.60;59.00;;;;;;5025625;28;20034;-91
2020/12/08 08:53:14;;;;;;;;;;;-0.50;58.30;;;;;;4995919;28;20052;-92
2020/12/08 08:55:40;;;;;;;52.35;28.52;;;-0.50;59.00;;;;;;5011296;28;19910;-91
2020/12/08 08:58:06;;;;;;;48.20;26.83;;;-0.50;58.60;;;;;;5010062;28;20490;-92
2020/12/08 09:00:32;;;;;;;49.60;27.30;;;-0.50;58.30;;;;;;5010326;28;20034;-95
2020/12/08 09:02:59;;;;;;;41.00;26.30;;;-0.10;58.50;;;;;;5025618;28;20277;-93
2020/12/08 09:05:25;;;;;;;58.63;30.85;;;0.20;57.50;;;;;;5007022;28;20076;-89
2020/12/08 09:07:52;;;;;;;46.13;26.98;;;0.50;56.70;;;;;;5011933;28;20038;-91
2020/12/08 09:10:18;;;;;;;41.90;25.10;;;0.70;55.40;;;;;;4988942;28;20096;-89
2020/12/08 09:12:44;;;;;;;42.63;27.48;;;0.70;55.10;;;;;;4985731;28;20078;-94
2020/12/08 09:15:19;;;;;;;43.58;27.17;;;0.80;55.20;;;;;;5016526;28;20090;-93
2020/12/08 09:17:45;;;;;;;49.13;26.17;;;0.80;54.20;;;;;;5001628;28;20056;-93
2020/12/08 09:20:24;;;;;;;48.40;27.90;;;0.70;54.20;;;;;;5016887;28;20109;-93
2020/12/08 09:22:56;;;;;;;43.53;26.42;;;0.60;53.80;;;;;;5035341;28;20113;-86
2020/12/08 09:25:35;;;;;;;42.00;26.65;;;0.30;53.90;;;;;;4973371;28;20044;-95
2020/12/08 09:28:08;;;;;;;43.92;24.42;;;0.10;53.90;;;;;;5036215;28;20040;-94
2020/12/08 09:30:36;;;;;;;;;;;-0.20;54.00;;;;;;5020301;28;20137;-95
2020/12/08 09:33:04;;;;;;;46.58;27.73;;;-0.60;55.00;;;;;;5016227;28;19914;-93
2020/12/08 09:35:32;;;;;;;53.10;29.25;;;-1.10;55.20;;;;;;4998247;28;20468;-92
2020/12/08 09:37:57;;;;;;;49.20;26.75;;;-1.50;56.10;;;;;;4986577;28;20031;-87
2020/12/08 09:40:23;;;;;;;51.95;28.05;;;-1.80;56.70;;;;;;4987997;28;20027;-91
2020/12/08 09:42:49;;;;;;;38.97;25.73;;;-2.10;57.20;;;;;;4991497;28;20050;-87
2020/12/08 09:45:22;;;;;;;44.10;27.25;;;-2.30;57.60;;;;;;4996527;28;20568;-94
2020/12/08 09:47:49;;;;;;;47.08;24.80;;;-2.30;58.00;;;;;;4969999;28;20054;-93
2020/12/08 09:50:15;;;;;;;43.57;25.27;;;-2.50;58.40;;;;;;4990435;28;20027;-95
2020/12/08 09:52:41;;;;;;;51.80;26.33;;;-2.60;58.60;;;;;;5009584;28;20276;-91
2020/12/08 09:55:14;;;;;;;52.20;24.73;;;-2.70;58.90;;;;;;4977326;28;20019;-96
2020/12/08 09:57:40;;;;;;;51.25;25.67;;;-2.80;59.30;;;;;;4982611;28;20527;-92
2020/12/08 10:00:07;;;;;;;58.67;30.35;;;-2.50;59.90;;;;;;4985972;28;20038;-94
2020/12/08 10:02:46;;;;;;;54.22;26.15;;;-1.70;60.30;;;;;;4984177;28;20045;-93
2020/12/08 10:05:15;;;;;;;54.90;29.20;;;-0.60;58.70;;;;;;5029804;28;20060;-92
2020/12/08 10:07:42;;;;;;;41.85;26.48;;;0.30;56.70;;;;;;5012565;28;20036;-90
2020/12/08 10:10:11;;;;;;;47.83;24.88;;;1.10;54.70;;;;;;5072849;28;20029;-92
2020/12/08 10:12:38;;;;;;;48.50;25.40;;;2.00;53.60;;;;;;5047566;28;20033;-94
2020/12/08 10:15:04;;;;;;;46.92;26.65;;;2.90;51.80;;;;;;5020535;28;20038;-93
2020/12/08 10:17:36;;;;;;;39.38;25.77;;;3.80;49.40;;;;;;5028997;28;20036;-96
2020/12/08 10:20:13;;;;;;;52.22;27.63;;;4.50;47.10;;;;;;5015628;28;20049;-95
2020/12/08 10:22:55;;;;;;;44.75;27.52;;;4.90;45.30;;;;;;5003534;28;20101;-95
2020/12/08 10:25:25;;;;;;;47.75;27.65;;;4.40;44.70;;;;;;5025602;28;20041;-96
2020/12/08 10:27:52;;;;;;;52.35;27.80;;;3.30;44.10;;;;;;5006779;28;20041;-95
2020/12/08 10:30:19;;;;;;;;;;;2.20;45.50;;;;;;5025458;28;20041;-91
2020/12/08 10:32:45;;;;;;;50.45;27.67;;;1.20;48.10;;;;;;5011806;28;20040;-89
2020/12/08 10:35:11;;;;;;;42.85;24.55;;;0.50;48.80;;;;;;5021365;28;20142;-91
2020/12/08 10:37:37;;;;;;;42.95;26.15;;;0.00;49.70;;;;;;5028106;28;20053;-93
2020/12/08 10:40:05;;;;;;;55.33;25.63;;;-0.40;50.30;;;;;;5024979;28;20026;-95
2020/12/08 10:42:32;;;;;;;37.95;26.63;;;-0.70;51.00;;;;;;5016601;28;20233;-94
2020/12/08 10:44:58;;;;;;;48.28;25.65;;;-1.00;51.70;;;;;;5070693;28;20053;-92
2020/12/08 10:47:37;;;;;;;44.58;25.08;;;-1.40;52.40;;;;;;5058604;28;20045;-93
2020/12/08 10:50:03;;;;;;;51.35;26.23;;;-1.70;53.30;;;;;;5059659;28;20033;-91
2020/12/08 10:52:30;;;;;;;46.07;24.50;;;-2.00;54.30;;;;;;5058945;28;20013;-89
2020/12/08 10:54:56;;;;;;;47.92;30.30;;;-2.30;54.80;;;;;;5076844;28;20211;-92
2020/12/08 10:57:22;;;;;;;53.55;26.25;;;-2.50;55.60;;;;;;5059540;28;20117;-94
2020/12/08 10:59:50;;;;;;;46.28;25.92;;;-2.60;56.00;;;;;;5050029;28;20191;-91
2020/12/08 11:02:18;;;;;;;48.42;24.77;;;-2.60;56.20;;;;;;5052520;28;20017;-90
2020/12/08 11:04:46;;;;;;;48.47;26.85;;;-2.70;56.50;;;;;;5076422;28;20045;-93
2020/12/08 11:07:19;;;;;;;46.65;24.73;;;-2.80;57.00;;;;;;5032283;28;20022;-94
2020/12/08 11:10:03;;;;;;;47.08;26.30;;;-2.80;57.20;;;;;;5065715;28;20048;-90
2020/12/08 11:12:29;;;;;;;53.60;26.30;;;-2.90;57.60;;;;;;5060215;28;20042;-91
2020/12/08 11:15:06;;;;;;;39.75;25.05;;;-2.90;57.80;;;;;;5097741;28;20033;-89
2020/12/08 11:17:36;;;;;;;47.30;26.15;;;-3.00;58.00;;;;;;5154851;22;20075;-91
2020/12/08 11:20:07;;;;;;;55.35;28.23;;;-3.00;58.20;;;;;;5083908;28;20105;-90
2020/12/08 11:22:33;;;;;;;47.33;25.17;;;-3.10;58.50;;;;;;5077469;28;20025;-91
2020/12/08 11:25:00;;;;;;;45.10;28.63;;;-3.10;58.60;;;;;;5073993;28;20509;-90
2020/12/08 11:27:27;;;;;;;47.38;27.13;;;-3.10;58.90;;;;;;5058910;28;20054;-90
2020/12/08 11:29:53;;;;;;;52.65;29.60;;;-3.10;58.90;;;;;;5075358;28;20431;-91
2020/12/08 11:32:20;;;;;;;50.15;27.13;;;-3.10;59.10;;;;;;5068167;28;20060;-90
2020/12/08 11:34:47;;;;;;;51.25;27.60;;;-3.20;59.20;;;;;;5064342;28;20102;-91
2020/12/08 11:37:13;;;;;;;49.40;25.38;;;-3.20;59.30;;;;;;5069936;28;20041;-93
2020/12/08 11:39:47;;;;;;;48.47;26.70;;;-3.20;59.40;;;;;;5047406;28;20048;-94
2020/12/08 11:42:14;;;;;;;52.20;28.05;;;-3.30;59.70;;;;;;5069688;28;20026;-91
2020/12/08 11:44:46;;;;;;;57.08;27.92;;;-3.30;59.90;;;;;;5050554;28;20411;-93
2020/12/08 11:47:12;;;;;;;46.90;27.40;;;-3.30;60.00;;;;;;5048088;28;20039;-93
2020/12/08 11:49:40;;;;;;;57.85;28.77;;;-3.30;60.10;;;;;;5062677;28;20489;-92
2020/12/08 11:52:09;;;;;;;;;;;-3.30;60.30;;;;;;5077596;28;20191;-91
2020/12/08 11:54:39;;;;;;;56.10;26.42;;;-3.30;60.30;;;;;;5064049;28;20425;-93
2020/12/08 11:57:07;;;;;;;47.92;26.63;;;-3.40;60.50;;;;;;5066786;28;20029;-91
2020/12/08 11:59:33;;;;;;;50.78;29.80;;;-3.50;60.70;;;;;;5070383;28;20466;-92
2020/12/08 12:01:59;;;;;;;48.63;27.80;;;-3.50;60.80;;;;;;5071027;28;20153;-92
2020/12/08 12:04:25;;;;;;;50.35;30.60;;;-3.40;61.10;;;;;;5074547;28;20059;-92
2020/12/08 12:06:51;;;;;;;47.92;29.27;;;-3.50;61.10;;;;;;5066413;28;20024;-89
2020/12/08 12:09:17;;;;;;;68.63;31.52;;;-3.50;61.30;;;;;;5062065;28;20033;-93
2020/12/08 12:11:43;;;;;;;43.63;28.70;;;-3.50;61.40;;;;;;5060677;28;20055;-94
2020/12/08 12:14:11;;;;;;;52.15;27.20;;;-3.50;61.50;;;;;;5085926;28;20021;-93
2020/12/08 12:16:43;;;;;;;62.28;34.25;;;-3.50;61.60;;;;;;5054422;28;20053;-95
2020/12/08 12:19:09;;;;;;;56.10;30.17;;;-3.50;61.90;;;;;;5085824;28;20062;-93
2020/12/08 12:21:35;;;;;;;52.05;30.13;;;-3.60;62.00;;;;;;5084126;28;20477;-92
2020/12/08 12:24:01;;;;;;;57.08;29.88;;;-3.60;62.40;;;;;;5083899;28;20031;-93
2020/12/08 12:26:27;;;;;;;56.05;33.85;;;-3.60;62.50;;;;;;5092464;28;20028;-91
2020/12/08 12:28:53;;;;;;;58.90;29.92;;;-3.60;62.80;;;;;;5079308;28;20056;-90
2020/12/08 12:31:20;;;;;;;53.50;27.85;;;-3.60;63.00;;;;;;5078895;28;20028;-87
2020/12/08 12:33:48;;;;;;;56.50;30.27;;;-3.70;63.10;;;;;;5071402;28;20075;-93
2020/12/08 12:36:16;;;;;;;56.17;32.50;;;-3.70;63.30;;;;;;5066694;28;20271;-92
2020/12/08 12:39:10;;;;;;;;;;;;;;;;;;;;;
2020/12/08 12:41:37;;;;;;;55.35;30.08;;;-3.80;63.50;;;;;;5066172;28;20048;-90
2020/12/08 12:44:02;;;;;;;57.75;29.25;;;-3.80;63.50;;;;;;5071257;28;20025;-93
2020/12/08 12:46:28;;;;;;;50.97;29.73;;;-3.80;63.70;;;;;;5070491;28;20446;-92
2020/12/08 12:48:56;;;;;;;55.88;30.02;;;-3.90;63.60;;;;;;5050571;28;20488;-95
2020/12/08 12:51:24;;;;;;;55.42;28.50;;;-3.90;63.70;;;;;;5063842;28;20091;-94
2020/12/08 12:53:53;;;;;;;57.33;30.33;;;-3.90;63.90;;;;;;5081015;28;20036;-94
2020/12/08 12:56:24;;;;;;;60.13;32.40;;;-4.00;63.80;;;;;;5037361;28;20045;-93
2020/12/08 12:58:58;;;;;;;60.15;30.40;;;-4.00;63.90;;;;;;5034821;28;20029;-94
2020/12/08 13:01:24;;;;;;;56.83;30.02;;;-4.00;64.00;;;;;;5037163;28;20037;-92
2020/12/08 13:03:50;;;;;;;57.85;31.08;;;-4.00;64.00;;;;;;5059711;28;20040;-93
2020/12/08 13:06:21;;;;;;;51.35;26.50;;;-4.10;64.20;;;;;;5060152;28;20059;-94
2020/12/08 13:09:16;;;;;;;56.00;28.30;;;-4.10;64.20;;;;;;5037867;28;20054;-95